Time;durP1;ratioP1;P1;durP2;ratioP2;P2;SDS_P1;SDS_P2;PMS_P1;PMS_P2;Temp;Humidity;BMP_temperature;BMP_pressure;BME280_temperature;BME280_humidity;BME280_pressure;Samples;Min_cycle;Max_cycle;Signal;HPM_P1;HPM_P2
2023/03/07 00:04:45;;;;;;;28.10;14.67;;;;;;;-1.50;100.00;95073.50;10371784;28;20695;-62
2023/03/07 00:09:46;;;;;;;26.10;14.20;;;;;;;-1.41;100.00;95082.22;10371480;28;20201;-62
2023/03/07 00:14:47;;;;;;;28.50;14.43;;;;;;;-1.25;100.00;95072.34;10371782;28;20268;-63
2023/03/07 00:19:47;;;;;;;26.00;14.33;;;;;;;-1.36;100.00;95068.09;10371236;28;20622;-63
2023/03/07 00:24:47;;;;;;;23.67;12.70;;;;;;;-1.26;100.00;95065.56;10371457;28;20590;-63
2023/03/07 00:29:49;;;;;;;29.17;14.97;;;;;;;-1.25;100.00;95064.63;10370804;28;20608;-62
2023/03/07 00:34:49;;;;;;;23.30;12.80;;;;;;;-1.20;100.00;95057.38;10370102;28;20236;-64
2023/03/07 00:39:49;;;;;;;24.53;13.23;;;;;;;-1.18;100.00;95047.78;10370512;28;20191;-63
2023/03/07 00:44:50;;;;;;;24.30;13.47;;;;;;;-1.11;100.00;95041.19;10430782;23;20725;-61
2023/03/07 00:49:50;;;;;;;25.53;12.40;;;;;;;-0.96;100.00;95033.97;10467590;28;20202;-62
2023/03/07 00:54:50;;;;;;;23.63;12.93;;;;;;;-0.88;100.00;95028.19;10452165;28;20213;-62
2023/03/07 00:59:51;;;;;;;24.70;12.97;;;;;;;-0.78;100.00;95013.66;10467565;28;20288;-62
2023/03/07 01:04:51;;;;;;;21.07;12.43;;;;;;;-0.74;100.00;95012.41;10467353;28;20245;-61
2023/03/07 01:09:52;;;;;;;22.43;12.73;;;;;;;-0.78;100.00;95007.66;10467281;28;20278;-62
2023/03/07 01:14:52;;;;;;;20.67;11.97;;;;;;;-0.92;100.00;94999.38;10466823;28;20216;-61
2023/03/07 01:19:53;;;;;;;21.97;12.80;;;;;;;-0.75;100.00;94991.97;10451779;28;20188;-62
2023/03/07 01:24:53;;;;;;;22.67;13.33;;;;;;;-0.83;100.00;94997.78;10450048;28;20204;-62
2023/03/07 01:29:53;;;;;;;19.57;11.30;;;;;;;-0.86;100.00;94987.75;10466916;28;20192;-61
2023/03/07 01:34:54;;;;;;;22.30;11.27;;;;;;;-0.91;100.00;94966.75;10451983;28;20302;-62
2023/03/07 01:39:54;;;;;;;20.63;11.83;;;;;;;-0.91;100.00;94959.84;10409973;28;20185;-62
2023/03/07 01:45:10;;;;;;;23.13;12.67;;;;;;;-0.95;100.00;94955.09;10412024;28;20232;-62
2023/03/07 01:50:16;;;;;;;26.50;12.10;;;;;;;-1.07;100.00;94941.56;10416731;28;20204;-62
2023/03/07 01:55:20;;;;;;;22.37;11.63;;;;;;;-1.27;100.00;94931.19;10416756;28;20266;-62
2023/03/07 02:00:28;;;;;;;21.03;12.20;;;;;;;-1.36;100.00;94931.13;10399778;28;20189;-62
2023/03/07 02:05:36;;;;;;;20.83;12.07;;;;;;;-1.37;100.00;94921.81;10432595;28;20255;-62
2023/03/07 02:10:37;;;;;;;23.83;13.40;;;;;;;-1.42;100.00;94918.78;10415834;28;20754;-61
2023/03/07 02:15:38;;;;;;;86.00;32.63;;;;;;;-1.36;100.00;94916.53;10415558;28;20599;-61
2023/03/07 02:20:48;;;;;;;49.03;20.77;;;;;;;-1.46;100.00;94903.63;10432006;28;20196;-60
2023/03/07 02:26:16;;;;;;;189.77;65.87;;;;;;;-1.54;100.00;94903.47;10416455;28;20211;-61
2023/03/07 02:31:17;;;;;;;25.83;13.07;;;;;;;-1.54;100.00;94893.19;10431518;28;20682;-61
2023/03/07 02:36:27;;;;;;;18.80;11.17;;;;;;;-1.53;100.00;94884.56;10431577;28;20257;-61
2023/03/07 02:41:42;;;;;;;20.53;11.10;;;;;;;-1.53;100.00;94878.59;10431587;28;20196;-60
2023/03/07 02:46:53;;;;;;;19.10;10.60;;;;;;;-1.62;100.00;94873.28;10416216;28;20228;-60
2023/03/07 02:51:59;;;;;;;18.67;10.53;;;;;;;-1.71;100.00;94865.56;10414423;28;20249;-62
2023/03/07 02:57:00;;;;;;;21.27;12.30;;;;;;;-1.76;100.00;94867.66;10429578;28;20220;-59
2023/03/07 03:02:00;;;;;;;18.87;9.77;;;;;;;-1.92;100.00;94863.81;10414152;28;20679;-61
2023/03/07 03:07:01;;;;;;;20.87;11.80;;;;;;;-1.76;100.00;94854.84;10413381;28;20201;-62
2023/03/07 03:12:02;;;;;;;21.67;12.20;;;;;;;-1.78;100.00;94856.72;10430744;28;20191;-62
2023/03/07 03:17:04;;;;;;;19.90;11.70;;;;;;;-1.83;100.00;94839.13;10429599;28;20598;-62
2023/03/07 03:22:05;;;;;;;22.33;12.10;;;;;;;-1.91;100.00;94838.97;10414651;28;20247;-60
2023/03/07 03:27:10;;;;;;;18.90;10.73;;;;;;;-1.87;100.00;94827.50;10413065;28;20602;-62
2023/03/07 03:32:11;;;;;;;22.30;13.13;;;;;;;-1.94;100.00;94822.06;10429209;28;20188;-62
2023/03/07 03:37:13;;;;;;;24.73;14.13;;;;;;;-1.90;100.00;94810.63;10429216;28;20223;-59
2023/03/07 03:42:14;;;;;;;19.40;11.20;;;;;;;-1.80;100.00;94808.88;10413504;28;20212;-62
2023/03/07 03:47:15;;;;;;;20.67;11.17;;;;;;;-1.85;100.00;94798.22;10428772;28;20316;-60
2023/03/07 03:52:16;;;;;;;12.90;6.63;;;;;;;-1.74;100.00;94786.25;10428889;28;20227;-63
2023/03/07 03:57:19;;;;;;;24.23;13.70;;;;;;;-1.72;100.00;94777.44;10412480;28;20342;-62
2023/03/07 04:02:20;;;;;;;31.67;16.30;;;;;;;-1.63;100.00;94771.53;10433217;28;20203;-62
2023/03/07 04:07:21;;;;;;;19.03;12.07;;;;;;;-1.69;100.00;94756.66;10453461;28;20556;-62
2023/03/07 04:12:21;;;;;;;16.43;8.63;;;;;;;-1.54;100.00;94751.19;10453896;28;20184;-60
2023/03/07 04:17:21;;;;;;;15.90;10.17;;;;;;;-1.38;100.00;94733.50;10452177;28;20365;-62
2023/03/07 04:22:22;;;;;;;16.67;8.40;;;;;;;-1.32;100.00;94715.00;10451915;28;20188;-62
2023/03/07 04:27:22;;;;;;;11.63;6.13;;;;;;;-1.29;100.00;94719.88;10452131;28;20655;-61
2023/03/07 04:32:23;;;;;;;35.70;14.23;;;;;;;-1.32;100.00;94706.47;10452749;28;20180;-62
2023/03/07 04:37:23;;;;;;;58.53;17.13;;;;;;;-1.31;100.00;94692.69;10451720;28;20207;-62
2023/03/07 04:42:24;;;;;;;21.70;10.27;;;;;;;-1.30;100.00;94695.13;10451189;28;20241;-63
2023/03/07 04:47:25;;;;;;;24.10;10.70;;;;;;;-1.35;100.00;94681.84;10450999;28;20307;-62
2023/03/07 04:52:27;;;;;;;17.53;8.73;;;;;;;-1.40;100.00;94678.88;10451006;28;20230;-62
2023/03/07 04:57:28;;;;;;;17.80;9.73;;;;;;;-1.33;100.00;94671.44;10450582;28;20215;-63
2023/03/07 05:02:29;;;;;;;15.73;9.67;;;;;;;-1.39;100.00;94677.94;10452487;28;20183;-62
2023/03/07 05:07:31;;;;;;;16.80;8.53;;;;;;;-1.26;100.00;94664.84;10450760;28;20188;-62
2023/03/07 05:12:31;;;;;;;17.97;8.73;;;;;;;-1.09;100.00;94665.91;10452221;28;20573;-62
2023/03/07 05:17:32;;;;;;;15.70;9.10;;;;;;;-1.25;100.00;94658.75;10450442;28;20246;-62
2023/03/07 05:22:33;;;;;;;14.37;8.47;;;;;;;-1.29;100.00;94667.69;10449939;28;20283;-62
2023/03/07 05:27:33;;;;;;;16.40;10.47;;;;;;;-1.29;100.00;94668.50;10467566;28;20677;-60
2023/03/07 05:32:34;;;;;;;16.93;8.63;;;;;;;-1.26;100.00;94675.13;10451638;28;20755;-64
2023/03/07 05:37:34;;;;;;;11.07;6.37;;;;;;;-1.04;100.00;94650.91;10450765;28;20212;-63
2023/03/07 05:42:35;;;;;;;18.37;10.07;;;;;;;-0.91;100.00;94646.28;10451457;28;20208;-63
2023/03/07 05:47:37;;;;;;;8.33;4.27;;;;;;;-0.94;100.00;94638.84;10450121;28;20192;-62
2023/03/07 05:52:40;;;;;;;14.13;9.27;;;;;;;-0.91;100.00;94642.91;10450251;28;20609;-63
2023/03/07 05:57:41;;;;;;;10.60;6.07;;;;;;;-0.62;100.00;94637.72;10450876;28;20295;-62
2023/03/07 06:02:41;;;;;;;14.70;8.07;;;;;;;-0.55;100.00;94622.56;10450298;28;20214;-60
2023/03/07 06:07:45;;;;;;;10.83;6.47;;;;;;;-0.63;100.00;94625.84;10449753;28;20194;-61
2023/03/07 06:12:49;;;;;;;13.27;5.93;;;;;;;-0.54;100.00;94644.72;10449790;28;20215;-60
2023/03/07 06:17:51;;;;;;;6.67;4.53;;;;;;;-0.45;100.00;94655.94;10451043;28;20297;-59
2023/03/07 06:22:52;;;;;;;9.47;5.33;;;;;;;-0.38;100.00;94639.00;10450514;28;20216;-60
2023/03/07 06:27:58;;;;;;;16.83;9.27;;;;;;;-0.43;100.00;94654.88;10449966;28;20191;-62
2023/03/07 06:32:59;;;;;;;11.53;7.30;;;;;;;-0.39;100.00;94658.75;10452813;28;20212;-62
2023/03/07 06:37:59;;;;;;;15.67;9.07;;;;;;;-0.32;100.00;94659.03;10457665;28;20579;-64
2023/03/07 06:42:59;;;;;;;14.23;8.23;;;;;;;-0.30;100.00;94672.56;10457625;28;20235;-62
2023/03/07 06:48:00;;;;;;;11.20;7.17;;;;;;;-0.23;100.00;94671.06;10415546;22;20646;-68
2023/03/07 06:53:00;;;;;;;15.40;8.67;;;;;;;-0.26;100.00;94667.94;10390744;28;20225;-66
2023/03/07 06:58:01;;;;;;;13.50;8.33;;;;;;;-0.14;100.00;94677.09;10389649;28;20224;-67
2023/03/07 07:03:01;;;;;;;12.10;7.30;;;;;;;-0.18;100.00;94678.34;10373924;28;20212;-68
2023/03/07 07:08:02;;;;;;;14.63;9.87;;;;;;;-0.31;100.00;94693.28;10374590;28;20299;-67
2023/03/07 07:13:03;;;;;;;10.60;5.07;;;;;;;-0.28;100.00;94695.56;10373344;28;20193;-65
2023/03/07 07:18:04;;;;;;;16.23;10.67;;;;;;;-0.34;100.00;94678.94;10389554;28;20217;-66
2023/03/07 07:23:06;;;;;;;11.03;7.00;;;;;;;-0.12;100.00;94675.22;10389297;28;20185;-67
2023/03/07 07:28:07;;;;;;;11.63;6.57;;;;;;;-0.06;100.00;94677.22;10389339;28;20266;-66
2023/03/07 07:33:08;;;;;;;10.00;6.57;;;;;;;0.01;100.00;94686.94;10373718;28;20189;-68
2023/03/07 07:38:08;;;;;;;10.83;6.60;;;;;;;0.12;100.00;94700.47;10388713;28;20255;-66
2023/03/07 07:43:13;;;;;;;12.43;7.23;;;;;;;0.23;100.00;94691.72;10372993;28;20195;-68
2023/03/07 07:48:21;;;;;;;13.00;8.30;;;;;;;0.15;100.00;94692.44;10388373;28;20797;-66
2023/03/07 07:53:22;;;;;;;8.40;5.00;;;;;;;0.30;100.00;94694.53;10387957;28;20276;-67
2023/03/07 07:58:23;;;;;;;10.17;6.43;;;;;;;0.32;100.00;94697.75;10371458;28;21088;-66
2023/03/07 08:03:24;;;;;;;10.80;6.53;;;;;;;0.47;100.00;94686.03;10371460;28;20193;-66
2023/03/07 08:08:25;;;;;;;11.27;6.60;;;;;;;0.44;100.00;94676.00;10372399;28;20205;-66
2023/03/07 08:13:25;;;;;;;11.30;6.03;;;;;;;0.67;100.00;94681.59;10372216;28;20284;-66
2023/03/07 08:18:26;;;;;;;8.50;6.07;;;;;;;0.66;100.00;94674.81;10372080;28;20212;-66
2023/03/07 08:23:26;;;;;;;8.30;5.47;;;;;;;0.75;100.00;94662.81;10371940;28;20234;-64
2023/03/07 08:28:26;;;;;;;7.80;5.30;;;;;;;0.74;100.00;94661.19;10371607;28;20213;-65
2023/03/07 08:33:27;;;;;;;5.40;3.27;;;;;;;0.98;100.00;94654.63;10371469;28;20195;-63
2023/03/07 08:38:27;;;;;;;8.60;5.33;;;;;;;1.24;100.00;94652.06;10371096;28;20232;-64
2023/03/07 08:43:29;;;;;;;4.93;4.13;;;;;;;1.25;100.00;94639.03;10371320;28;20197;-64
2023/03/07 08:48:30;;;;;;;7.10;4.60;;;;;;;1.53;100.00;94635.50;10370643;28;20237;-63
2023/03/07 08:53:30;;;;;;;6.03;4.47;;;;;;;1.47;100.00;94628.38;10369994;28;20625;-65
2023/03/07 08:58:31;;;;;;;9.23;5.37;;;;;;;1.59;100.00;94637.47;10370310;28;20691;-69
2023/03/07 09:03:31;;;;;;;3.83;2.87;;;;;;;1.63;100.00;94630.25;10370746;28;20732;-68
2023/03/07 09:08:32;;;;;;;5.93;4.40;;;;;;;1.73;100.00;94624.03;10370528;28;20695;-68
2023/03/07 09:13:32;;;;;;;3.93;2.90;;;;;;;1.77;100.00;94638.22;10370144;28;20288;-67
2023/03/07 09:18:33;;;;;;;6.77;4.47;;;;;;;1.55;100.00;94642.13;10370391;28;20602;-68
2023/03/07 09:23:34;;;;;;;5.67;3.40;;;;;;;1.75;100.00;94640.16;10369894;28;20208;-67
2023/03/07 09:28:34;;;;;;;4.20;3.67;;;;;;;1.82;100.00;94635.16;10370038;28;20726;-67
2023/03/07 09:33:35;;;;;;;6.47;4.63;;;;;;;1.65;100.00;94647.19;10369861;28;20619;-68
2023/03/07 09:38:35;;;;;;;6.70;6.00;;;;;;;1.42;100.00;94629.66;10369741;28;20209;-69
2023/03/07 09:43:43;;;;;;;6.67;4.90;;;;;;;1.86;100.00;94656.34;10368314;28;20200;-67
2023/03/07 09:49:19;;;;;;;7.30;5.67;;;;;;;1.59;100.00;94629.72;10349766;28;20743;-68
2023/03/07 09:54:21;;;;;;;7.13;5.53;;;;;;;1.60;100.00;94631.34;10369458;28;20607;-67
2023/03/07 09:59:46;;;;;;;7.13;5.50;;;;;;;1.84;100.00;94624.69;10369777;28;20298;-67
2023/03/07 10:05:09;;;;;;;7.60;5.37;;;;;;;2.08;100.00;94609.31;10364462;28;20634;-65
2023/03/07 10:10:13;;;;;;;7.10;5.03;;;;;;;2.33;100.00;94617.16;10372676;28;20204;-64
2023/03/07 10:16:03;;;;;;;6.67;3.90;;;;;;;2.53;100.00;94598.75;10373811;28;20607;-65
2023/03/07 10:21:20;;;;;;;6.63;5.23;;;;;;;2.84;100.00;94584.25;10352017;28;20213;-66
2023/03/07 10:26:32;;;;;;;6.93;4.90;;;;;;;2.81;100.00;94568.25;10375136;28;20228;-63
2023/03/07 10:31:38;;;;;;;5.90;3.80;;;;;;;3.34;98.23;94540.22;10374203;28;20252;-62
2023/03/07 10:36:43;;;;;;;7.97;5.17;;;;;;;3.64;95.25;94530.09;10374121;28;20703;-65
2023/03/07 10:41:44;;;;;;;6.80;5.40;;;;;;;3.27;91.79;94503.84;10373412;28;20198;-65
2023/03/07 10:46:45;;;;;;;6.03;3.67;;;;;;;4.05;92.05;94511.78;10372369;28;20287;-62
2023/03/07 10:51:59;;;;;;;7.37;5.37;;;;;;;3.77;88.85;94481.19;10374141;28;20208;-66
2023/03/07 10:57:15;;;;;;;6.97;4.37;;;;;;;3.88;86.98;94467.03;10369318;28;20221;-64
2023/03/07 11:02:35;;;;;;;9.63;6.37;;;;;;;3.70;85.83;94457.72;10369567;28;20193;-63
2023/03/07 11:07:36;;;;;;;6.23;4.47;;;;;;;3.87;85.85;94462.81;10367147;28;20208;-66
2023/03/07 11:12:43;;;;;;;9.67;4.70;;;;;;;3.51;85.27;94460.75;10371688;28;20196;-67
2023/03/07 11:17:46;;;;;;;7.53;5.53;;;;;;;3.71;86.22;94472.28;10372074;28;20214;-67
2023/03/07 11:22:47;;;;;;;7.40;6.70;;;;;;;2.97;85.10;94449.28;10372904;28;20659;-66
2023/03/07 11:27:53;;;;;;;11.67;5.17;;;;;;;3.40;84.76;94436.03;10372580;28;20211;-67
2023/03/07 11:33:05;;;;;;;8.37;6.40;;;;;;;3.27;84.82;94444.34;10371557;28;20193;-66
2023/03/07 11:38:12;;;;;;;5.63;4.37;;;;;;;3.32;84.63;94431.72;10370753;28;21016;-68
2023/03/07 11:43:40;;;;;;;10.20;5.37;;;;;;;3.41;84.31;94429.09;10370740;28;20533;-68
2023/03/07 11:48:50;;;;;;;6.77;6.03;;;;;;;2.97;83.51;94400.16;10371887;28;20244;-68
2023/03/07 11:54:03;;;;;;;8.90;5.87;;;;;;;3.46;84.27;94411.25;10371993;28;20779;-64
2023/03/07 11:59:25;;;;;;;7.57;6.50;;;;;;;3.53;82.16;94389.69;10370007;28;20247;-64
2023/03/07 12:04:44;;;;;;;9.17;6.13;;;;;;;3.51;80.86;94373.53;10369324;28;20670;-64
2023/03/07 12:10:02;;;;;;;5.13;4.00;;;;;;;3.87;80.61;94374.75;10369047;28;20259;-65
2023/03/07 12:15:29;;;;;;;7.20;5.13;;;;;;;4.00;80.12;94387.16;10370997;28;20651;-64
2023/03/07 12:20:36;;;;;;;6.20;5.10;;;;;;;3.59;78.89;94348.59;10369068;28;20189;-66
2023/03/07 12:25:40;;;;;;;10.80;5.47;;;;;;;4.03;79.47;94359.09;10369347;28;20206;-66
2023/03/07 12:30:51;;;;;;;6.90;4.70;;;;;;;3.94;77.38;94331.66;10369243;28;20209;-66
2023/03/07 12:35:55;;;;;;;8.30;4.73;;;;;;;4.06;77.84;94365.72;10368905;28;20232;-64
2023/03/07 12:41:00;;;;;;;6.17;4.47;;;;;;;3.91;78.24;94353.53;10368249;28;20203;-66
2023/03/07 12:46:10;;;;;;;32.80;15.33;;;;;;;3.82;76.93;94335.63;10369845;28;20229;-66
2023/03/07 12:51:19;;;;;;;33.70;17.57;;;;;;;4.33;74.90;94294.38;10424049;23;20780;-61
2023/03/07 12:56:48;;;;;;;7.57;5.53;;;;;;;4.20;75.97;94310.53;10408701;28;20221;-60
2023/03/07 13:01:58;;;;;;;6.77;4.83;;;;;;;4.24;75.33;94306.63;10425501;28;20216;-58
2023/03/07 13:07:08;;;;;;;7.00;5.13;;;;;;;4.36;74.04;94306.16;10410381;28;20239;-58
2023/03/07 13:12:14;;;;;;;6.43;4.80;;;;;;;4.50;73.24;94291.59;10408588;28;20212;-60
2023/03/07 13:17:30;;;;;;;6.77;4.30;;;;;;;4.58;72.99;94292.31;10408578;28;20252;-61
2023/03/07 13:22:30;;;;;;;5.60;4.33;;;;;;;4.59;74.11;94296.50;10404193;28;20250;-58
2023/03/07 13:27:43;;;;;;;7.17;4.60;;;;;;;4.20;73.10;94273.47;10386931;28;20641;-61
2023/03/07 13:32:47;;;;;;;11.63;4.93;;;;;;;4.29;73.77;94285.34;10408756;28;20332;-61
2023/03/07 13:37:55;;;;;;;6.03;4.73;;;;;;;4.50;73.75;94276.84;10387535;28;20209;-59
2023/03/07 13:42:56;;;;;;;7.20;5.00;;;;;;;4.22;74.15;94287.84;10390969;28;20630;-63
2023/03/07 13:47:56;;;;;;;8.77;4.97;;;;;;;4.04;73.82;94282.19;10404644;28;20290;-63
2023/03/07 13:52:58;;;;;;;6.13;4.40;;;;;;;4.10;74.66;94304.78;10417495;28;20196;-61
2023/03/07 13:58:06;;;;;;;6.57;5.33;;;;;;;3.43;76.37;94333.94;10417121;28;20263;-61
2023/03/07 14:03:18;;;;;;;5.47;3.33;;;;;;;3.65;78.17;94356.47;10432271;28;20192;-62
2023/03/07 14:08:22;;;;;;;5.13;3.53;;;;;;;3.60;78.75;94363.13;10415505;28;20263;-63
2023/03/07 14:13:33;;;;;;;4.87;3.70;;;;;;;3.63;78.64;94362.78;10398906;28;20213;-60
2023/03/07 14:18:45;;;;;;;6.47;4.57;;;;;;;3.71;77.56;94336.84;10394583;28;20312;-63
2023/03/07 14:24:11;;;;;;;7.33;4.00;;;;;;;3.61;77.77;94351.81;10416864;28;20189;-62
2023/03/07 14:29:21;;;;;;;7.83;5.63;;;;;;;3.47;78.79;94359.31;10390914;28;20229;-63
2023/03/07 14:34:30;;;;;;;7.30;4.37;;;;;;;3.56;77.13;94340.16;10384949;28;20215;-62
2023/03/07 14:39:56;;;;;;;7.93;5.00;;;;;;;3.44;77.19;94336.38;10378698;28;20209;-62
2023/03/07 14:45:16;;;;;;;5.97;5.07;;;;;;;3.20;78.12;94360.59;10374209;28;20200;-60
2023/03/07 14:50:28;;;;;;;6.37;4.10;;;;;;;3.46;78.32;94334.44;10393455;28;20240;-62
2023/03/07 14:55:34;;;;;;;4.17;2.97;;;;;;;3.73;78.18;94329.72;10411984;28;20220;-63
2023/03/07 15:00:35;;;;;;;7.30;5.20;;;;;;;3.38;80.19;94368.94;10414667;28;20219;-63
2023/03/07 15:05:45;;;;;;;8.07;4.33;;;;;;;3.38;80.70;94365.50;10395712;28;20200;-63
2023/03/07 15:10:48;;;;;;;5.37;3.13;;;;;;;3.41;80.27;94359.22;10378172;28;20621;-63
2023/03/07 15:15:52;;;;;;;9.30;5.70;;;;;;;2.93;83.43;94398.06;10388645;28;20660;-61
2023/03/07 15:20:54;;;;;;;8.70;5.90;;;;;;;2.80;86.24;94432.19;10391950;28;20226;-63
2023/03/07 15:26:00;;;;;;;4.77;3.90;;;;;;;2.78;85.98;94406.50;10405721;28;20188;-64
2023/03/07 15:31:01;;;;;;;5.77;3.73;;;;;;;2.93;85.65;94387.72;10412710;28;20748;-63
2023/03/07 15:36:07;;;;;;;6.90;3.07;;;;;;;2.98;84.21;94354.41;10406654;28;20213;-63
2023/03/07 15:41:30;;;;;;;7.67;4.67;;;;;;;2.98;82.89;94354.41;10390698;28;20726;-61
2023/03/07 15:46:31;;;;;;;6.47;4.10;;;;;;;3.10;82.52;94345.28;10390786;28;20609;-61
2023/03/07 15:51:36;;;;;;;9.97;5.80;;;;;;;3.08;82.01;94333.50;10392869;28;20264;-65
2023/03/07 15:56:37;;;;;;;7.43;4.77;;;;;;;3.04;81.66;94341.59;10391188;28;20205;-64
2023/03/07 16:01:37;;;;;;;6.97;4.97;;;;;;;2.94;81.88;94350.53;10392813;28;20270;-64
2023/03/07 16:06:42;;;;;;;8.40;5.03;;;;;;;3.03;81.91;94354.69;10395550;28;20193;-63
2023/03/07 16:11:44;;;;;;;6.10;3.90;;;;;;;3.11;81.37;94341.75;10405408;28;20275;-63
2023/03/07 16:16:45;;;;;;;5.67;4.33;;;;;;;3.10;81.00;94339.31;10410104;28;20255;-64
2023/03/07 16:21:45;;;;;;;5.83;4.07;;;;;;;3.02;80.28;94325.44;10411294;28;20216;-63
2023/03/07 16:26:46;;;;;;;7.47;4.63;;;;;;;2.96;80.36;94309.81;10409741;28;20277;-64
2023/03/07 16:31:48;;;;;;;8.73;5.03;;;;;;;2.95;79.98;94326.28;10409522;28;20236;-64
2023/03/07 16:36:48;;;;;;;4.77;3.40;;;;;;;3.03;78.77;94293.44;10406885;28;20393;-63
2023/03/07 16:41:49;;;;;;;7.10;4.43;;;;;;;2.93;78.81;94304.97;10410405;28;20583;-63
2023/03/07 16:47:13;;;;;;;9.97;4.43;;;;;;;2.94;78.13;94296.22;10383944;28;20193;-63
2023/03/07 16:52:13;;;;;;;7.73;4.10;;;;;;;2.99;77.86;94301.72;10368199;28;20216;-63
2023/03/07 16:57:15;;;;;;;6.53;4.50;;;;;;;2.94;77.26;94293.63;10378521;28;20236;-63
2023/03/07 17:02:18;;;;;;;6.80;5.37;;;;;;;2.88;77.54;94307.25;10409894;28;20192;-64
2023/03/07 17:07:22;;;;;;;7.13;5.17;;;;;;;2.89;77.17;94311.44;10409668;28;20295;-63
2023/03/07 17:12:22;;;;;;;9.50;5.40;;;;;;;2.84;78.10;94330.84;10389003;28;20280;-63
2023/03/07 17:17:28;;;;;;;6.57;4.50;;;;;;;2.78;77.67;94323.75;10408696;28;20312;-61
2023/03/07 17:22:28;;;;;;;9.90;6.17;;;;;;;2.69;78.13;94327.34;10410397;28;20223;-63
2023/03/07 17:27:28;;;;;;;8.17;5.20;;;;;;;2.75;78.12;94346.56;10409760;28;20216;-62
2023/03/07 17:32:28;;;;;;;7.10;5.50;;;;;;;2.70;77.46;94349.66;10409564;28;20196;-62
2023/03/07 17:37:29;;;;;;;7.70;5.87;;;;;;;2.63;78.50;94369.38;10409465;28;20275;-62
2023/03/07 17:42:29;;;;;;;9.23;5.70;;;;;;;2.65;78.50;94362.28;10409536;28;20220;-62
2023/03/07 17:47:30;;;;;;;7.63;3.47;;;;;;;2.72;77.79;94358.03;10408644;28;20305;-59
2023/03/07 17:52:31;;;;;;;7.87;4.03;;;;;;;2.70;78.01;94375.50;10409173;28;20185;-62
2023/03/07 17:57:32;;;;;;;17.93;8.33;;;;;;;2.57;78.18;94388.91;10408919;28;20224;-62
2023/03/07 18:02:33;;;;;;;9.07;5.27;;;;;;;2.58;78.59;94392.34;10407595;28;20192;-62
2023/03/07 18:07:34;;;;;;;8.07;5.90;;;;;;;2.55;79.06;94393.47;10408881;28;20629;-62
2023/03/07 18:12:37;;;;;;;8.97;5.83;;;;;;;2.54;78.76;94391.03;10390564;28;20268;-61
2023/03/07 18:17:38;;;;;;;12.30;7.80;;;;;;;2.43;79.13;94398.16;10385306;28;20222;-63
2023/03/07 18:22:39;;;;;;;9.83;5.63;;;;;;;2.43;79.58;94397.34;10408832;28;20197;-63
2023/03/07 18:27:39;;;;;;;7.33;5.77;;;;;;;2.35;80.21;94412.88;10410396;28;20217;-62
2023/03/07 18:32:39;;;;;;;14.57;8.30;;;;;;;2.36;80.40;94412.72;10404101;28;20227;-63
2023/03/07 18:37:40;;;;;;;9.03;5.70;;;;;;;2.28;80.66;94418.69;10396567;28;20229;-63
2023/03/07 18:42:41;;;;;;;7.83;5.03;;;;;;;2.27;80.57;94424.03;10413079;28;20193;-64
2023/03/07 18:47:41;;;;;;;8.53;5.73;;;;;;;2.28;80.62;94429.03;10414108;28;20235;-62
2023/03/07 18:52:42;;;;;;;12.03;5.50;;;;;;;2.36;80.50;94443.72;10416226;28;20249;-64
2023/03/07 18:57:43;;;;;;;8.17;5.17;;;;;;;2.30;80.52;94449.53;10415573;28;20224;-65
2023/03/07 19:02:43;;;;;;;8.13;5.67;;;;;;;2.27;80.77;94463.56;10415165;28;20192;-63
2023/03/07 19:07:43;;;;;;;8.17;4.93;;;;;;;2.50;80.77;94462.94;10415064;28;20279;-64
2023/03/07 19:12:44;;;;;;;8.80;4.97;;;;;;;2.21;81.57;94473.75;10414860;28;20200;-62
2023/03/07 19:17:44;;;;;;;6.63;4.50;;;;;;;2.29;82.12;94473.75;10414092;28;20243;-63
2023/03/07 19:22:44;;;;;;;9.47;6.33;;;;;;;1.98;82.51;94470.97;10414535;28;20223;-64
2023/03/07 19:27:45;;;;;;;9.97;5.23;;;;;;;1.98;82.84;94473.56;10413844;28;20215;-64
2023/03/07 19:32:45;;;;;;;12.83;6.80;;;;;;;2.02;83.18;94480.84;10414379;28;20189;-64
2023/03/07 19:37:46;;;;;;;7.93;6.10;;;;;;;1.98;82.86;94476.94;10413204;28;20228;-61
2023/03/07 19:42:46;;;;;;;11.50;6.40;;;;;;;2.02;83.55;94470.50;10413920;28;20216;-63
2023/03/07 19:47:46;;;;;;;11.30;5.97;;;;;;;1.97;83.49;94470.16;10413314;28;20608;-63
2023/03/07 19:52:47;;;;;;;8.83;5.93;;;;;;;2.06;83.02;94458.06;10413487;28;20597;-64
2023/03/07 19:57:47;;;;;;;8.87;5.83;;;;;;;2.16;81.56;94447.56;10412998;28;20220;-64
2023/03/07 20:02:47;;;;;;;8.73;5.70;;;;;;;2.34;82.44;94462.94;10412697;28;20227;-63
2023/03/07 20:07:48;;;;;;;5.10;3.40;;;;;;;1.80;90.06;94556.28;10412480;28;20224;-64
2023/03/07 20:12:50;;;;;;;4.10;3.37;;;;;;;1.26;97.98;94577.97;10412342;28;20184;-64
2023/03/07 20:17:50;;;;;;;7.27;4.13;;;;;;;0.78;100.00;94571.50;10411223;28;20236;-62
2023/03/07 20:22:55;;;;;;;7.20;5.70;;;;;;;0.28;100.00;94567.69;10412108;28;20250;-64
2023/03/07 20:27:55;;;;;;;6.53;4.90;;;;;;;0.17;100.00;94586.75;10411944;28;20204;-64
2023/03/07 20:32:56;;;;;;;7.90;5.40;;;;;;;-0.03;100.00;94594.56;10411946;28;20192;-63
2023/03/07 20:37:56;;;;;;;7.87;5.47;;;;;;;-0.18;100.00;94603.72;10385288;28;20593;-64
2023/03/07 20:42:56;;;;;;;6.27;4.87;;;;;;;-0.22;100.00;94604.97;10370790;28;20627;-63
2023/03/07 20:47:57;;;;;;;9.77;5.47;;;;;;;-0.36;100.00;94612.19;10372583;28;20654;-64
2023/03/07 20:52:57;;;;;;;7.10;5.73;;;;;;;-0.25;100.00;94612.97;10372868;28;20794;-64
2023/03/07 20:57:58;;;;;;;10.10;6.70;;;;;;;-0.12;100.00;94616.03;10371543;28;20711;-63
2023/03/07 21:02:58;;;;;;;8.80;6.97;;;;;;;-0.25;100.00;94612.97;10370522;28;20828;-64
2023/03/07 21:07:58;;;;;;;9.43;6.93;;;;;;;-0.35;100.00;94610.44;10369875;28;20208;-64
2023/03/07 21:12:59;;;;;;;8.50;6.60;;;;;;;-0.34;100.00;94624.09;10363967;28;20199;-65
2023/03/07 21:17:59;;;;;;;10.50;7.07;;;;;;;-0.36;100.00;94625.03;10368336;28;20992;-62
2023/03/07 21:22:59;;;;;;;9.00;6.57;;;;;;;-0.30;100.00;94635.75;10373867;28;20200;-64
2023/03/07 21:28:00;;;;;;;9.57;7.17;;;;;;;-0.29;100.00;94634.75;10451990;28;20690;-64
2023/03/07 21:33:00;;;;;;;11.10;8.03;;;;;;;-0.29;100.00;94648.47;10451896;28;20572;-64
2023/03/07 21:38:00;;;;;;;9.40;7.00;;;;;;;-0.34;100.00;94642.09;10451676;28;20704;-64
2023/03/07 21:43:01;;;;;;;10.37;7.20;;;;;;;-0.14;100.00;94641.06;10451512;28;20697;-64
2023/03/07 21:48:01;;;;;;;11.03;8.50;;;;;;;-0.42;100.00;94643.63;10451342;28;20745;-64
2023/03/07 21:53:01;;;;;;;14.43;10.13;;;;;;;-0.49;100.00;94658.00;10451660;28;20760;-64
2023/03/07 21:58:02;;;;;;;11.23;7.37;;;;;;;-0.41;100.00;94665.81;10451288;28;20811;-64
2023/03/07 22:03:03;;;;;;;10.37;7.77;;;;;;;-0.45;100.00;94674.75;10455363;28;20696;-64
2023/03/07 22:08:03;;;;;;;14.60;8.87;;;;;;;-0.57;100.00;94678.44;10458762;28;20352;-64
2023/03/07 22:13:03;;;;;;;13.30;9.13;;;;;;;-0.54;100.00;94685.88;10459443;28;20234;-65
2023/03/07 22:18:04;;;;;;;16.03;10.33;;;;;;;-0.54;100.00;94691.03;10458426;28;20313;-65
2023/03/07 22:23:04;;;;;;;19.37;11.73;;;;;;;-0.51;100.00;94701.03;10459120;28;20191;-65
2023/03/07 22:28:04;;;;;;;12.73;8.23;;;;;;;-0.61;100.00;94710.53;10458634;28;20203;-65
2023/03/07 22:33:05;;;;;;;8.93;6.20;;;;;;;-0.64;100.00;94709.06;10458512;28;20193;-65
2023/03/07 22:38:05;;;;;;;7.90;5.50;;;;;;;-0.67;100.00;94711.91;10458148;28;20306;-66
2023/03/07 22:43:05;;;;;;;7.57;5.83;;;;;;;-0.72;100.00;94717.44;10458267;28;20199;-66
2023/03/07 22:48:06;;;;;;;10.70;7.17;;;;;;;-0.79;100.00;94723.28;10457899;28;20764;-66
2023/03/07 22:53:06;;;;;;;13.37;9.40;;;;;;;-0.81;100.00;94725.16;10457817;28;20622;-66
2023/03/07 22:58:08;;;;;;;18.10;10.47;;;;;;;-0.89;100.00;94728.41;10457547;28;20601;-66
2023/03/07 23:03:09;;;;;;;15.07;8.80;;;;;;;-0.70;100.00;94729.34;10419962;28;20216;-67
2023/03/07 23:08:09;;;;;;;11.07;6.87;;;;;;;-0.74;100.00;94724.47;10374147;28;20220;-66
2023/03/07 23:13:09;;;;;;;10.93;7.40;;;;;;;-0.64;100.00;94721.09;10373381;28;20280;-66
2023/03/07 23:18:10;;;;;;;11.87;7.37;;;;;;;-0.84;100.00;94731.41;10373304;28;20243;-66
2023/03/07 23:23:10;;;;;;;8.77;6.40;;;;;;;-0.85;100.00;94739.25;10374196;28;20197;-66